Etusivu
METAR-TAF:

METAR-TAF

Lentoasemat :

Jakutskin lentoasema

Jakutsk, Venäjä

Leveyspiiri: 62-01N, Pituuspiiri: 129-43E, korkeus merenpinnasta: 103 m

Tämänhetkinen sää

Tämä raportti tehtiin 15 minuuttia sitten, kello 08.30 UTC
tyyntä
Lämpötila 13°C
Kosteus 35%
Ilmanpaine 1013 hPa
Näkyvyys 10 km tai enemmän
ei pilviä alle 1500 m:ssä eikä cumulonimbus-pilviä

METAR: UEEE 200830Z 00000MPS CAVOK 13/M02 Q1013 R23L/09//60 NOSIG RMK QFE751

Aika: 17:45 (08:45 UTC)

Sääennuste

Tämä raportti tehtiin 45 minuuttia sitten, kello 08.00 UTC
Ennuste voimassa 20. päivästä klo 09 UTC - 21. päivään klo 15 UTC
Tuuli 6 kn luoteesta puuskistuen 16 kn:hen
Näkyvyys 10 km tai enemmän
Hajanaisia pilviä 3000 ft:n korkeudessa

TAF: UEEE 200800Z 2009/2115 31003G08MPS 9999 SCT030

Säähavainnot ja -ennusteet yli 4000 lentoasemalta (METAR- ja TAF-raportit).

Käytössä olevat sääasemat on merkitty karttaan keltaisilla ja punaisilla pisteillä.

Aseta hiiri pisteen päälle nähdäksesi sääaseman nimen.

Klikkaa sitten nähdäksesi säähavainnot ja -ennusteet.

Kartan vaihtaminen: klikkaa mustalla rastilla varustettuja vihreitä pisteitä, niin voit zoomata sisään; viivalla varustettua vihreää pistettä, niin voit zoomata ulos tai vihreitä nuolia, niin pääset viereisille kartoille.


METAR-TAF: